sensor_id;sensor_type;location;lat;lon;timestamp;P1;durP1;ratioP1;P2;durP2;ratioP2
23394;SDS011;11870;53.084;18.206;2023-11-18T00:01:01;42.40;;;21.17;;
23394;SDS011;11870;53.084;18.206;2023-11-18T00:03:44;43.92;;;21.15;;
23394;SDS011;11870;53.084;18.206;2023-11-18T00:06:11;39.58;;;20.08;;
23394;SDS011;11870;53.084;18.206;2023-11-18T00:08:39;41.67;;;19.40;;
23394;SDS011;11870;53.084;18.206;2023-11-18T00:11:06;38.25;;;18.40;;
23394;SDS011;11870;53.084;18.206;2023-11-18T00:13:33;42.38;;;20.00;;
23394;SDS011;11870;53.084;18.206;2023-11-18T00:16:01;33.95;;;17.83;;
23394;SDS011;11870;53.084;18.206;2023-11-18T00:18:28;32.28;;;17.13;;
23394;SDS011;11870;53.084;18.206;2023-11-18T00:20:58;36.00;;;16.45;;
23394;SDS011;11870;53.084;18.206;2023-11-18T00:23:24;29.83;;;15.25;;
23394;SDS011;11870;53.084;18.206;2023-11-18T00:25:52;37.95;;;16.92;;
23394;SDS011;11870;53.084;18.206;2023-11-18T00:28:19;61.95;;;22.50;;
23394;SDS011;11870;53.084;18.206;2023-11-18T00:30:47;69.68;;;24.70;;
23394;SDS011;11870;53.084;18.206;2023-11-18T00:33:29;50.28;;;21.65;;
23394;SDS011;11870;53.084;18.206;2023-11-18T00:36:12;38.33;;;17.30;;
23394;SDS011;11870;53.084;18.206;2023-11-18T00:39:00;35.95;;;16.08;;
23394;SDS011;11870;53.084;18.206;2023-11-18T00:42:21;34.53;;;17.35;;
23394;SDS011;11870;53.084;18.206;2023-11-18T00:45:14;30.17;;;15.35;;
23394;SDS011;11870;53.084;18.206;2023-11-18T00:56:04;32.13;;;16.20;;
23394;SDS011;11870;53.084;18.206;2023-11-18T01:05:22;31.13;;;14.50;;
23394;SDS011;11870;53.084;18.206;2023-11-18T01:08:44;35.28;;;14.52;;
23394;SDS011;11870;53.084;18.206;2023-11-18T01:11:50;32.03;;;15.77;;
23394;SDS011;11870;53.084;18.206;2023-11-18T01:14:38;29.25;;;14.65;;
23394;SDS011;11870;53.084;18.206;2023-11-18T01:18:08;33.28;;;15.38;;
23394;SDS011;11870;53.084;18.206;2023-11-18T01:21:40;33.20;;;15.38;;
23394;SDS011;11870;53.084;18.206;2023-11-18T01:24:49;31.63;;;14.82;;
23394;SDS011;11870;53.084;18.206;2023-11-18T01:30:45;33.72;;;16.17;;
23394;SDS011;11870;53.084;18.206;2023-11-18T01:33:34;37.38;;;15.98;;
23394;SDS011;11870;53.084;18.206;2023-11-18T01:36:27;31.02;;;16.02;;
23394;SDS011;11870;53.084;18.206;2023-11-18T01:39:15;34.25;;;17.55;;
23394;SDS011;11870;53.084;18.206;2023-11-18T01:41:48;53.00;;;21.23;;
23394;SDS011;11870;53.084;18.206;2023-11-18T01:44:21;60.25;;;23.33;;
23394;SDS011;11870;53.084;18.206;2023-11-18T01:47:04;48.20;;;18.67;;
23394;SDS011;11870;53.084;18.206;2023-11-18T01:49:38;55.38;;;22.30;;
23394;SDS011;11870;53.084;18.206;2023-11-18T01:52:10;51.70;;;19.90;;
23394;SDS011;11870;53.084;18.206;2023-11-18T01:54:45;40.83;;;17.10;;
23394;SDS011;11870;53.084;18.206;2023-11-18T01:57:37;35.35;;;17.15;;
23394;SDS011;11870;53.084;18.206;2023-11-18T02:00:15;33.15;;;15.80;;
23394;SDS011;11870;53.084;18.206;2023-11-18T02:02:47;32.50;;;16.40;;
23394;SDS011;11870;53.084;18.206;2023-11-18T02:05:28;41.67;;;18.80;;
23394;SDS011;11870;53.084;18.206;2023-11-18T02:08:01;37.92;;;16.77;;
23394;SDS011;11870;53.084;18.206;2023-11-18T02:10:46;30.10;;;15.38;;
23394;SDS011;11870;53.084;18.206;2023-11-18T02:13:27;30.55;;;15.07;;
23394;SDS011;11870;53.084;18.206;2023-11-18T02:16:00;35.08;;;15.85;;
23394;SDS011;11870;53.084;18.206;2023-11-18T02:18:33;41.15;;;18.15;;
23394;SDS011;11870;53.084;18.206;2023-11-18T02:21:06;36.63;;;17.17;;
23394;SDS011;11870;53.084;18.206;2023-11-18T02:23:40;34.42;;;17.13;;
23394;SDS011;11870;53.084;18.206;2023-11-18T02:26:11;35.58;;;17.23;;
23394;SDS011;11870;53.084;18.206;2023-11-18T02:28:48;41.35;;;19.15;;
23394;SDS011;11870;53.084;18.206;2023-11-18T02:31:20;37.10;;;16.40;;
23394;SDS011;11870;53.084;18.206;2023-11-18T02:34:01;31.08;;;16.05;;
23394;SDS011;11870;53.084;18.206;2023-11-18T02:36:35;38.63;;;16.95;;
23394;SDS011;11870;53.084;18.206;2023-11-18T02:39:20;31.13;;;15.18;;
23394;SDS011;11870;53.084;18.206;2023-11-18T02:41:51;28.75;;;14.30;;
23394;SDS011;11870;53.084;18.206;2023-11-18T02:44:23;43.53;;;18.88;;
23394;SDS011;11870;53.084;18.206;2023-11-18T02:46:51;36.70;;;17.98;;
23394;SDS011;11870;53.084;18.206;2023-11-18T02:49:19;30.95;;;16.00;;
23394;SDS011;11870;53.084;18.206;2023-11-18T02:51:48;27.10;;;14.57;;
23394;SDS011;11870;53.084;18.206;2023-11-18T02:54:15;36.72;;;16.75;;
23394;SDS011;11870;53.084;18.206;2023-11-18T02:56:43;34.83;;;17.25;;
23394;SDS011;11870;53.084;18.206;2023-11-18T02:59:10;36.88;;;16.98;;
23394;SDS011;11870;53.084;18.206;2023-11-18T03:01:38;33.88;;;16.23;;
23394;SDS011;11870;53.084;18.206;2023-11-18T03:04:04;33.35;;;15.85;;
23394;SDS011;11870;53.084;18.206;2023-11-18T03:06:34;31.55;;;14.60;;
23394;SDS011;11870;53.084;18.206;2023-11-18T03:09:01;32.85;;;16.05;;
23394;SDS011;11870;53.084;18.206;2023-11-18T03:11:33;33.15;;;16.58;;
23394;SDS011;11870;53.084;18.206;2023-11-18T03:14:02;32.88;;;16.48;;
23394;SDS011;11870;53.084;18.206;2023-11-18T03:16:31;38.45;;;16.02;;
23394;SDS011;11870;53.084;18.206;2023-11-18T03:18:57;27.70;;;14.20;;
23394;SDS011;11870;53.084;18.206;2023-11-18T03:21:24;27.02;;;13.63;;
23394;SDS011;11870;53.084;18.206;2023-11-18T03:23:52;27.50;;;13.63;;
23394;SDS011;11870;53.084;18.206;2023-11-18T03:26:19;28.83;;;14.27;;
23394;SDS011;11870;53.084;18.206;2023-11-18T03:28:45;30.00;;;13.95;;
23394;SDS011;11870;53.084;18.206;2023-11-18T03:31:13;30.88;;;14.43;;
23394;SDS011;11870;53.084;18.206;2023-11-18T03:33:41;27.58;;;13.30;;
23394;SDS011;11870;53.084;18.206;2023-11-18T03:36:10;26.88;;;12.90;;
23394;SDS011;11870;53.084;18.206;2023-11-18T03:38:38;29.30;;;15.00;;
23394;SDS011;11870;53.084;18.206;2023-11-18T03:41:05;29.95;;;14.85;;
23394;SDS011;11870;53.084;18.206;2023-11-18T03:43:35;24.65;;;12.80;;
23394;SDS011;11870;53.084;18.206;2023-11-18T03:46:03;26.42;;;13.32;;
23394;SDS011;11870;53.084;18.206;2023-11-18T03:48:32;27.25;;;13.60;;
23394;SDS011;11870;53.084;18.206;2023-11-18T03:51:01;25.20;;;12.93;;
23394;SDS011;11870;53.084;18.206;2023-11-18T03:53:29;24.92;;;13.57;;
23394;SDS011;11870;53.084;18.206;2023-11-18T03:55:56;29.30;;;13.65;;
23394;SDS011;11870;53.084;18.206;2023-11-18T03:58:24;30.05;;;14.02;;
23394;SDS011;11870;53.084;18.206;2023-11-18T04:00:51;27.92;;;13.00;;
23394;SDS011;11870;53.084;18.206;2023-11-18T04:03:21;23.48;;;12.52;;
23394;SDS011;11870;53.084;18.206;2023-11-18T04:05:56;23.98;;;12.25;;
23394;SDS011;11870;53.084;18.206;2023-11-18T04:08:23;28.40;;;13.75;;
23394;SDS011;11870;53.084;18.206;2023-11-18T04:10:53;24.60;;;12.02;;
23394;SDS011;11870;53.084;18.206;2023-11-18T04:13:23;25.25;;;12.80;;
23394;SDS011;11870;53.084;18.206;2023-11-18T04:15:59;27.15;;;12.70;;
23394;SDS011;11870;53.084;18.206;2023-11-18T04:18:32;28.15;;;13.35;;
23394;SDS011;11870;53.084;18.206;2023-11-18T04:21:00;26.45;;;12.48;;
23394;SDS011;11870;53.084;18.206;2023-11-18T04:23:36;26.88;;;13.63;;
23394;SDS011;11870;53.084;18.206;2023-11-18T04:26:09;27.77;;;13.07;;
23394;SDS011;11870;53.084;18.206;2023-11-18T04:28:38;27.58;;;14.10;;
23394;SDS011;11870;53.084;18.206;2023-11-18T04:31:29;28.95;;;13.35;;
23394;SDS011;11870;53.084;18.206;2023-11-18T04:34:19;27.67;;;13.63;;
23394;SDS011;11870;53.084;18.206;2023-11-18T04:36:48;27.33;;;13.38;;
23394;SDS011;11870;53.084;18.206;2023-11-18T04:39:25;27.90;;;13.32;;
23394;SDS011;11870;53.084;18.206;2023-11-18T04:41:56;29.25;;;15.05;;
23394;SDS011;11870;53.084;18.206;2023-11-18T04:44:27;28.15;;;14.07;;
23394;SDS011;11870;53.084;18.206;2023-11-18T04:47:00;33.30;;;16.25;;
23394;SDS011;11870;53.084;18.206;2023-11-18T04:49:30;28.98;;;14.48;;
23394;SDS011;11870;53.084;18.206;2023-11-18T04:52:17;29.13;;;14.02;;
23394;SDS011;11870;53.084;18.206;2023-11-18T04:54:56;28.35;;;13.85;;
23394;SDS011;11870;53.084;18.206;2023-11-18T04:57:42;29.17;;;14.60;;
23394;SDS011;11870;53.084;18.206;2023-11-18T05:00:37;31.00;;;14.50;;
23394;SDS011;11870;53.084;18.206;2023-11-18T05:03:19;32.28;;;14.32;;
23394;SDS011;11870;53.084;18.206;2023-11-18T05:06:08;31.48;;;15.15;;
23394;SDS011;11870;53.084;18.206;2023-11-18T05:11:49;29.00;;;14.82;;
23394;SDS011;11870;53.084;18.206;2023-11-18T05:14:44;36.63;;;17.10;;
23394;SDS011;11870;53.084;18.206;2023-11-18T05:17:22;33.90;;;16.33;;
23394;SDS011;11870;53.084;18.206;2023-11-18T05:20:17;31.92;;;14.90;;
23394;SDS011;11870;53.084;18.206;2023-11-18T05:23:24;32.80;;;15.20;;
23394;SDS011;11870;53.084;18.206;2023-11-18T05:26:28;31.50;;;16.05;;
23394;SDS011;11870;53.084;18.206;2023-11-18T05:29:03;35.78;;;17.00;;
23394;SDS011;11870;53.084;18.206;2023-11-18T05:31:34;38.53;;;17.45;;
23394;SDS011;11870;53.084;18.206;2023-11-18T05:34:08;33.58;;;16.75;;
23394;SDS011;11870;53.084;18.206;2023-11-18T05:37:08;33.22;;;17.48;;
23394;SDS011;11870;53.084;18.206;2023-11-18T05:42:42;38.67;;;17.77;;
23394;SDS011;11870;53.084;18.206;2023-11-18T05:45:40;39.85;;;17.98;;
23394;SDS011;11870;53.084;18.206;2023-11-18T05:48:37;40.92;;;18.02;;
23394;SDS011;11870;53.084;18.206;2023-11-18T05:51:31;40.88;;;17.52;;
23394;SDS011;11870;53.084;18.206;2023-11-18T05:54:22;38.65;;;17.83;;
23394;SDS011;11870;53.084;18.206;2023-11-18T05:57:29;38.20;;;17.45;;
23394;SDS011;11870;53.084;18.206;2023-11-18T06:03:03;38.92;;;18.20;;
23394;SDS011;11870;53.084;18.206;2023-11-18T06:06:16;37.33;;;17.80;;
23394;SDS011;11870;53.084;18.206;2023-11-18T06:09:01;36.58;;;17.88;;
23394;SDS011;11870;53.084;18.206;2023-11-18T06:11:41;37.65;;;17.77;;
23394;SDS011;11870;53.084;18.206;2023-11-18T06:14:34;35.25;;;17.85;;
23394;SDS011;11870;53.084;18.206;2023-11-18T06:17:34;36.83;;;17.58;;
23394;SDS011;11870;53.084;18.206;2023-11-18T06:20:07;44.13;;;19.42;;
23394;SDS011;11870;53.084;18.206;2023-11-18T06:22:42;55.55;;;23.25;;
23394;SDS011;11870;53.084;18.206;2023-11-18T06:25:10;46.53;;;20.90;;
23394;SDS011;11870;53.084;18.206;2023-11-18T06:27:44;46.33;;;21.10;;
23394;SDS011;11870;53.084;18.206;2023-11-18T06:30:17;114.38;;;38.00;;
23394;SDS011;11870;53.084;18.206;2023-11-18T06:32:50;109.78;;;40.22;;
23394;SDS011;11870;53.084;18.206;2023-11-18T06:35:23;97.88;;;35.30;;
23394;SDS011;11870;53.084;18.206;2023-11-18T06:37:55;75.43;;;30.27;;
23394;SDS011;11870;53.084;18.206;2023-11-18T06:40:28;70.72;;;27.58;;
23394;SDS011;11870;53.084;18.206;2023-11-18T06:43:06;77.18;;;27.65;;
23394;SDS011;11870;53.084;18.206;2023-11-18T06:45:51;55.47;;;23.13;;
23394;SDS011;11870;53.084;18.206;2023-11-18T06:48:19;64.32;;;27.02;;
23394;SDS011;11870;53.084;18.206;2023-11-18T06:51:00;47.30;;;21.90;;
23394;SDS011;11870;53.084;18.206;2023-11-18T06:53:38;82.45;;;33.78;;
23394;SDS011;11870;53.084;18.206;2023-11-18T06:56:13;72.72;;;29.02;;
23394;SDS011;11870;53.084;18.206;2023-11-18T06:58:45;69.43;;;27.88;;
23394;SDS011;11870;53.084;18.206;2023-11-18T07:01:25;53.83;;;22.67;;
23394;SDS011;11870;53.084;18.206;2023-11-18T07:03:59;42.28;;;19.45;;
23394;SDS011;11870;53.084;18.206;2023-11-18T07:06:29;43.22;;;19.25;;
23394;SDS011;11870;53.084;18.206;2023-11-18T07:09:08;44.10;;;19.05;;
23394;SDS011;11870;53.084;18.206;2023-11-18T07:11:46;38.13;;;17.58;;
23394;SDS011;11870;53.084;18.206;2023-11-18T07:14:54;34.65;;;17.85;;
23394;SDS011;11870;53.084;18.206;2023-11-18T07:17:39;62.45;;;27.50;;
23394;SDS011;11870;53.084;18.206;2023-11-18T07:20:11;48.60;;;20.65;;
23394;SDS011;11870;53.084;18.206;2023-11-18T07:22:39;55.00;;;24.65;;
23394;SDS011;11870;53.084;18.206;2023-11-18T07:25:40;60.97;;;24.50;;
23394;SDS011;11870;53.084;18.206;2023-11-18T07:28:15;43.45;;;20.95;;
23394;SDS011;11870;53.084;18.206;2023-11-18T07:30:44;49.15;;;22.67;;
23394;SDS011;11870;53.084;18.206;2023-11-18T07:33:31;63.72;;;28.75;;
23394;SDS011;11870;53.084;18.206;2023-11-18T07:36:04;36.47;;;17.77;;
23394;SDS011;11870;53.084;18.206;2023-11-18T07:38:39;38.95;;;18.77;;
23394;SDS011;11870;53.084;18.206;2023-11-18T07:41:07;36.33;;;18.38;;
23394;SDS011;11870;53.084;18.206;2023-11-18T07:43:34;35.75;;;18.15;;
23394;SDS011;11870;53.084;18.206;2023-11-18T07:46:09;44.55;;;20.38;;
23394;SDS011;11870;53.084;18.206;2023-11-18T07:48:40;43.28;;;19.23;;
23394;SDS011;11870;53.084;18.206;2023-11-18T07:51:19;40.20;;;20.05;;
23394;SDS011;11870;53.084;18.206;2023-11-18T07:53:51;41.85;;;20.30;;
23394;SDS011;11870;53.084;18.206;2023-11-18T07:56:21;39.08;;;19.02;;
23394;SDS011;11870;53.084;18.206;2023-11-18T07:58:48;39.33;;;19.42;;
23394;SDS011;11870;53.084;18.206;2023-11-18T08:01:19;50.72;;;23.33;;
23394;SDS011;11870;53.084;18.206;2023-11-18T08:03:47;45.97;;;21.27;;
23394;SDS011;11870;53.084;18.206;2023-11-18T08:06:21;39.80;;;19.38;;
23394;SDS011;11870;53.084;18.206;2023-11-18T08:08:52;41.08;;;19.83;;
23394;SDS011;11870;53.084;18.206;2023-11-18T08:11:29;42.25;;;20.20;;
23394;SDS011;11870;53.084;18.206;2023-11-18T08:13:58;41.33;;;20.00;;
23394;SDS011;11870;53.084;18.206;2023-11-18T08:16:26;43.30;;;20.83;;
23394;SDS011;11870;53.084;18.206;2023-11-18T08:18:56;41.20;;;18.65;;
23394;SDS011;11870;53.084;18.206;2023-11-18T08:21:28;37.90;;;18.25;;
23394;SDS011;11870;53.084;18.206;2023-11-18T08:23:57;40.20;;;19.85;;
23394;SDS011;11870;53.084;18.206;2023-11-18T08:26:25;40.20;;;19.30;;
23394;SDS011;11870;53.084;18.206;2023-11-18T08:28:54;40.85;;;19.63;;
23394;SDS011;11870;53.084;18.206;2023-11-18T08:31:28;43.67;;;20.95;;
23394;SDS011;11870;53.084;18.206;2023-11-18T08:34:21;45.40;;;19.35;;
23394;SDS011;11870;53.084;18.206;2023-11-18T08:36:57;42.22;;;19.85;;
23394;SDS011;11870;53.084;18.206;2023-11-18T08:39:23;45.03;;;21.65;;
23394;SDS011;11870;53.084;18.206;2023-11-18T08:41:52;38.90;;;19.65;;
23394;SDS011;11870;53.084;18.206;2023-11-18T08:44:24;41.78;;;20.95;;
23394;SDS011;11870;53.084;18.206;2023-11-18T08:46:55;37.50;;;19.42;;
23394;SDS011;11870;53.084;18.206;2023-11-18T08:49:27;39.92;;;20.65;;
23394;SDS011;11870;53.084;18.206;2023-11-18T08:51:59;35.33;;;19.10;;
23394;SDS011;11870;53.084;18.206;2023-11-18T08:54:27;36.33;;;18.80;;
23394;SDS011;11870;53.084;18.206;2023-11-18T08:57:06;39.45;;;18.95;;
23394;SDS011;11870;53.084;18.206;2023-11-18T08:59:51;40.50;;;20.55;;
23394;SDS011;11870;53.084;18.206;2023-11-18T09:02:18;39.08;;;19.58;;
23394;SDS011;11870;53.084;18.206;2023-11-18T09:04:51;36.53;;;20.05;;
23394;SDS011;11870;53.084;18.206;2023-11-18T09:07:21;34.10;;;19.63;;
23394;SDS011;11870;53.084;18.206;2023-11-18T09:09:47;34.85;;;18.88;;
23394;SDS011;11870;53.084;18.206;2023-11-18T09:12:18;33.03;;;19.35;;
23394;SDS011;11870;53.084;18.206;2023-11-18T09:14:44;31.20;;;18.55;;
23394;SDS011;11870;53.084;18.206;2023-11-18T09:17:13;27.38;;;16.60;;
23394;SDS011;11870;53.084;18.206;2023-11-18T09:19:40;27.60;;;17.40;;
23394;SDS011;11870;53.084;18.206;2023-11-18T09:22:06;26.00;;;16.83;;
23394;SDS011;11870;53.084;18.206;2023-11-18T09:24:31;25.38;;;15.48;;
23394;SDS011;11870;53.084;18.206;2023-11-18T09:26:58;24.15;;;16.70;;
23394;SDS011;11870;53.084;18.206;2023-11-18T09:29:24;28.50;;;17.92;;
23394;SDS011;11870;53.084;18.206;2023-11-18T09:31:50;30.55;;;17.00;;
23394;SDS011;11870;53.084;18.206;2023-11-18T09:34:18;27.17;;;15.98;;
23394;SDS011;11870;53.084;18.206;2023-11-18T09:36:53;26.60;;;16.33;;
23394;SDS011;11870;53.084;18.206;2023-11-18T09:39:19;24.33;;;15.43;;
23394;SDS011;11870;53.084;18.206;2023-11-18T09:41:55;24.73;;;15.82;;
23394;SDS011;11870;53.084;18.206;2023-11-18T09:44:22;27.27;;;16.60;;
23394;SDS011;11870;53.084;18.206;2023-11-18T09:46:56;25.13;;;16.08;;
23394;SDS011;11870;53.084;18.206;2023-11-18T09:49:31;30.20;;;17.35;;
23394;SDS011;11870;53.084;18.206;2023-11-18T09:52:05;31.65;;;17.55;;
23394;SDS011;11870;53.084;18.206;2023-11-18T10:00:05;25.90;;;15.63;;
23394;SDS011;11870;53.084;18.206;2023-11-18T10:02:52;23.17;;;13.90;;
23394;SDS011;11870;53.084;18.206;2023-11-18T10:05:20;24.70;;;15.10;;
23394;SDS011;11870;53.084;18.206;2023-11-18T10:07:48;24.13;;;14.05;;
23394;SDS011;11870;53.084;18.206;2023-11-18T10:10:15;23.77;;;14.32;;
23394;SDS011;11870;53.084;18.206;2023-11-18T10:12:45;25.90;;;14.75;;
23394;SDS011;11870;53.084;18.206;2023-11-18T10:15:18;25.88;;;15.25;;
23394;SDS011;11870;53.084;18.206;2023-11-18T10:17:49;25.92;;;14.30;;
23394;SDS011;11870;53.084;18.206;2023-11-18T10:23:14;24.92;;;13.18;;
23394;SDS011;11870;53.084;18.206;2023-11-18T10:25:51;23.13;;;13.07;;
23394;SDS011;11870;53.084;18.206;2023-11-18T10:28:25;22.48;;;13.43;;
23394;SDS011;11870;53.084;18.206;2023-11-18T10:30:53;21.85;;;13.40;;
23394;SDS011;11870;53.084;18.206;2023-11-18T10:33:26;27.05;;;13.48;;
23394;SDS011;11870;53.084;18.206;2023-11-18T10:35:58;24.35;;;14.90;;
23394;SDS011;11870;53.084;18.206;2023-11-18T10:38:32;22.17;;;13.27;;
23394;SDS011;11870;53.084;18.206;2023-11-18T10:41:08;23.17;;;12.35;;
23394;SDS011;11870;53.084;18.206;2023-11-18T10:43:35;24.95;;;14.20;;
23394;SDS011;11870;53.084;18.206;2023-11-18T10:46:04;24.15;;;14.23;;
23394;SDS011;11870;53.084;18.206;2023-11-18T10:48:40;23.48;;;13.43;;
23394;SDS011;11870;53.084;18.206;2023-11-18T10:51:16;23.88;;;13.70;;
23394;SDS011;11870;53.084;18.206;2023-11-18T10:53:48;19.63;;;11.95;;
23394;SDS011;11870;53.084;18.206;2023-11-18T10:56:27;18.85;;;11.05;;
23394;SDS011;11870;53.084;18.206;2023-11-18T10:59:06;19.38;;;11.43;;
23394;SDS011;11870;53.084;18.206;2023-11-18T11:01:33;21.13;;;11.30;;
23394;SDS011;11870;53.084;18.206;2023-11-18T11:04:04;17.70;;;10.90;;
23394;SDS011;11870;53.084;18.206;2023-11-18T11:06:31;16.65;;;10.32;;
23394;SDS011;11870;53.084;18.206;2023-11-18T11:08:59;16.30;;;10.30;;
23394;SDS011;11870;53.084;18.206;2023-11-18T11:11:28;108.63;;;46.58;;
23394;SDS011;11870;53.084;18.206;2023-11-18T11:14:03;39.72;;;22.70;;
23394;SDS011;11870;53.084;18.206;2023-11-18T11:16:42;18.05;;;10.45;;
23394;SDS011;11870;53.084;18.206;2023-11-18T11:19:29;14.00;;;8.82;;
23394;SDS011;11870;53.084;18.206;2023-11-18T11:22:11;14.23;;;8.13;;
23394;SDS011;11870;53.084;18.206;2023-11-18T11:27:14;14.07;;;8.35;;
23394;SDS011;11870;53.084;18.206;2023-11-18T11:30:02;12.25;;;7.72;;
23394;SDS011;11870;53.084;18.206;2023-11-18T11:32:39;15.32;;;8.90;;
23394;SDS011;11870;53.084;18.206;2023-11-18T11:35:23;13.93;;;8.38;;
23394;SDS011;11870;53.084;18.206;2023-11-18T11:37:56;14.63;;;8.88;;
23394;SDS011;11870;53.084;18.206;2023-11-18T11:40:30;17.15;;;9.07;;
23394;SDS011;11870;53.084;18.206;2023-11-18T11:42:57;12.95;;;8.20;;
23394;SDS011;11870;53.084;18.206;2023-11-18T11:45:27;12.55;;;8.00;;
23394;SDS011;11870;53.084;18.206;2023-11-18T11:47:56;14.73;;;8.23;;
23394;SDS011;11870;53.084;18.206;2023-11-18T11:53:37;11.18;;;6.68;;
23394;SDS011;11870;53.084;18.206;2023-11-18T11:56:11;11.52;;;7.28;;
23394;SDS011;11870;53.084;18.206;2023-11-18T11:58:46;15.98;;;7.50;;
23394;SDS011;11870;53.084;18.206;2023-11-18T12:01:25;10.63;;;6.82;;
23394;SDS011;11870;53.084;18.206;2023-11-18T12:03:57;11.80;;;6.45;;
23394;SDS011;11870;53.084;18.206;2023-11-18T12:06:32;10.60;;;6.60;;
23394;SDS011;11870;53.084;18.206;2023-11-18T12:09:01;12.25;;;6.88;;
23394;SDS011;11870;53.084;18.206;2023-11-18T12:11:36;12.05;;;8.20;;
23394;SDS011;11870;53.084;18.206;2023-11-18T12:14:08;11.48;;;6.82;;
23394;SDS011;11870;53.084;18.206;2023-11-18T12:17:05;11.32;;;6.72;;
23394;SDS011;11870;53.084;18.206;2023-11-18T12:19:43;12.00;;;7.28;;
23394;SDS011;11870;53.084;18.206;2023-11-18T12:22:13;11.65;;;7.45;;
23394;SDS011;11870;53.084;18.206;2023-11-18T12:30:37;12.30;;;7.38;;
23394;SDS011;11870;53.084;18.206;2023-11-18T12:33:02;13.02;;;8.15;;
23394;SDS011;11870;53.084;18.206;2023-11-18T12:41:01;12.02;;;7.90;;
23394;SDS011;11870;53.084;18.206;2023-11-18T12:49:24;12.45;;;7.80;;
23394;SDS011;11870;53.084;18.206;2023-11-18T12:51:51;12.13;;;7.30;;
23394;SDS011;11870;53.084;18.206;2023-11-18T12:54:23;11.73;;;7.40;;
23394;SDS011;11870;53.084;18.206;2023-11-18T12:56:52;12.73;;;8.05;;
23394;SDS011;11870;53.084;18.206;2023-11-18T12:59:20;14.80;;;7.93;;
23394;SDS011;11870;53.084;18.206;2023-11-18T13:01:47;15.05;;;8.82;;
23394;SDS011;11870;53.084;18.206;2023-11-18T13:04:33;12.27;;;7.80;;
23394;SDS011;11870;53.084;18.206;2023-11-18T13:06:59;14.15;;;8.18;;
23394;SDS011;11870;53.084;18.206;2023-11-18T13:09:27;12.65;;;8.20;;
23394;SDS011;11870;53.084;18.206;2023-11-18T13:11:59;13.77;;;8.77;;
23394;SDS011;11870;53.084;18.206;2023-11-18T13:14:31;14.43;;;8.65;;
23394;SDS011;11870;53.084;18.206;2023-11-18T13:17:08;15.27;;;8.60;;
23394;SDS011;11870;53.084;18.206;2023-11-18T13:19:37;12.95;;;8.65;;
23394;SDS011;11870;53.084;18.206;2023-11-18T13:22:04;24.00;;;12.85;;
23394;SDS011;11870;53.084;18.206;2023-11-18T13:24:35;17.77;;;10.35;;
23394;SDS011;11870;53.084;18.206;2023-11-18T13:27:04;15.05;;;8.75;;
23394;SDS011;11870;53.084;18.206;2023-11-18T13:29:36;22.10;;;11.95;;
23394;SDS011;11870;53.084;18.206;2023-11-18T13:32:05;18.27;;;9.52;;
23394;SDS011;11870;53.084;18.206;2023-11-18T13:34:36;15.10;;;8.98;;
23394;SDS011;11870;53.084;18.206;2023-11-18T13:37:07;15.30;;;9.05;;
23394;SDS011;11870;53.084;18.206;2023-11-18T13:39:36;21.90;;;10.40;;
23394;SDS011;11870;53.084;18.206;2023-11-18T13:42:22;19.67;;;10.73;;
23394;SDS011;11870;53.084;18.206;2023-11-18T13:44:51;27.92;;;13.88;;
23394;SDS011;11870;53.084;18.206;2023-11-18T13:47:18;15.57;;;8.50;;
23394;SDS011;11870;53.084;18.206;2023-11-18T13:49:53;15.88;;;9.50;;
23394;SDS011;11870;53.084;18.206;2023-11-18T13:52:19;18.17;;;9.85;;
23394;SDS011;11870;53.084;18.206;2023-11-18T13:54:47;19.50;;;11.30;;
23394;SDS011;11870;53.084;18.206;2023-11-18T13:57:15;18.77;;;10.68;;
23394;SDS011;11870;53.084;18.206;2023-11-18T13:59:42;24.33;;;11.85;;
23394;SDS011;11870;53.084;18.206;2023-11-18T14:02:09;28.83;;;13.52;;
23394;SDS011;11870;53.084;18.206;2023-11-18T14:04:38;30.83;;;15.80;;
23394;SDS011;11870;53.084;18.206;2023-11-18T14:07:05;41.28;;;22.60;;
23394;SDS011;11870;53.084;18.206;2023-11-18T14:09:32;49.03;;;21.27;;
23394;SDS011;11870;53.084;18.206;2023-11-18T14:12:02;143.93;;;54.03;;
23394;SDS011;11870;53.084;18.206;2023-11-18T14:14:32;54.28;;;25.25;;
23394;SDS011;11870;53.084;18.206;2023-11-18T14:16:59;39.60;;;18.98;;
23394;SDS011;11870;53.084;18.206;2023-11-18T14:19:25;42.38;;;21.02;;
23394;SDS011;11870;53.084;18.206;2023-11-18T14:21:53;28.30;;;16.33;;
23394;SDS011;11870;53.084;18.206;2023-11-18T14:24:20;31.30;;;15.70;;
23394;SDS011;11870;53.084;18.206;2023-11-18T14:26:48;44.92;;;22.33;;
23394;SDS011;11870;53.084;18.206;2023-11-18T14:29:16;46.17;;;21.58;;
23394;SDS011;11870;53.084;18.206;2023-11-18T14:31:44;60.05;;;24.83;;
23394;SDS011;11870;53.084;18.206;2023-11-18T14:34:11;41.88;;;19.35;;
23394;SDS011;11870;53.084;18.206;2023-11-18T14:36:37;30.50;;;16.40;;
23394;SDS011;11870;53.084;18.206;2023-11-18T14:39:04;27.65;;;15.60;;
23394;SDS011;11870;53.084;18.206;2023-11-18T14:41:35;27.88;;;14.30;;
23394;SDS011;11870;53.084;18.206;2023-11-18T14:44:02;24.60;;;12.70;;
23394;SDS011;11870;53.084;18.206;2023-11-18T14:46:30;23.00;;;12.98;;
23394;SDS011;11870;53.084;18.206;2023-11-18T14:48:57;22.88;;;12.90;;
23394;SDS011;11870;53.084;18.206;2023-11-18T14:51:24;24.92;;;13.57;;
23394;SDS011;11870;53.084;18.206;2023-11-18T14:53:51;25.75;;;13.10;;
23394;SDS011;11870;53.084;18.206;2023-11-18T14:56:18;26.38;;;13.27;;
23394;SDS011;11870;53.084;18.206;2023-11-18T14:58:45;32.35;;;14.70;;
23394;SDS011;11870;53.084;18.206;2023-11-18T15:01:14;46.53;;;18.77;;
23394;SDS011;11870;53.084;18.206;2023-11-18T15:03:41;116.10;;;38.67;;
23394;SDS011;11870;53.084;18.206;2023-11-18T15:06:07;48.30;;;19.67;;
23394;SDS011;11870;53.084;18.206;2023-11-18T15:08:37;42.38;;;19.63;;
23394;SDS011;11870;53.084;18.206;2023-11-18T15:11:05;46.50;;;20.55;;
23394;SDS011;11870;53.084;18.206;2023-11-18T15:13:32;42.20;;;18.60;;
23394;SDS011;11870;53.084;18.206;2023-11-18T15:15:58;44.30;;;19.52;;
23394;SDS011;11870;53.084;18.206;2023-11-18T15:18:24;63.40;;;26.33;;
23394;SDS011;11870;53.084;18.206;2023-11-18T15:20:51;82.68;;;33.67;;
23394;SDS011;11870;53.084;18.206;2023-11-18T15:23:18;71.25;;;32.40;;
23394;SDS011;11870;53.084;18.206;2023-11-18T15:25:47;121.13;;;48.90;;
23394;SDS011;11870;53.084;18.206;2023-11-18T15:28:17;109.05;;;47.58;;
23394;SDS011;11870;53.084;18.206;2023-11-18T15:30:44;99.93;;;44.58;;
23394;SDS011;11870;53.084;18.206;2023-11-18T15:33:11;96.28;;;43.42;;
23394;SDS011;11870;53.084;18.206;2023-11-18T15:35:40;91.15;;;41.63;;
23394;SDS011;11870;53.084;18.206;2023-11-18T15:38:07;87.88;;;40.53;;
23394;SDS011;11870;53.084;18.206;2023-11-18T15:40:34;111.85;;;46.42;;
23394;SDS011;11870;53.084;18.206;2023-11-18T15:43:05;133.20;;;50.05;;
23394;SDS011;11870;53.084;18.206;2023-11-18T15:45:37;98.75;;;41.88;;
23394;SDS011;11870;53.084;18.206;2023-11-18T15:48:05;113.00;;;44.63;;
23394;SDS011;11870;53.084;18.206;2023-11-18T15:50:32;101.13;;;42.97;;